sensor_id;sensor_type;location;lat;lon;timestamp;P1;durP1;ratioP1;P2;durP2;ratioP2
61096;SDS011;46977;50.936;6.908;2023-06-22T00:01:15;2.50;;;2.30;;
61096;SDS011;46977;50.936;6.908;2023-06-22T00:04:19;2.78;;;2.58;;
61096;SDS011;46977;50.936;6.908;2023-06-22T00:07:21;2.53;;;2.33;;
61096;SDS011;46977;50.936;6.908;2023-06-22T00:10:24;2.83;;;2.60;;
61096;SDS011;46977;50.936;6.908;2023-06-22T00:13:26;2.80;;;2.60;;
61096;SDS011;46977;50.936;6.908;2023-06-22T00:16:28;3.28;;;2.30;;
61096;SDS011;46977;50.936;6.908;2023-06-22T00:19:32;2.30;;;2.10;;
61096;SDS011;46977;50.936;6.908;2023-06-22T00:22:37;2.35;;;2.10;;
61096;SDS011;46977;50.936;6.908;2023-06-22T00:25:40;2.80;;;2.55;;
61096;SDS011;46977;50.936;6.908;2023-06-22T00:28:43;3.47;;;2.28;;
61096;SDS011;46977;50.936;6.908;2023-06-22T00:31:45;2.60;;;2.40;;
61096;SDS011;46977;50.936;6.908;2023-06-22T00:34:49;2.45;;;2.08;;
61096;SDS011;46977;50.936;6.908;2023-06-22T00:37:52;2.65;;;2.45;;
61096;SDS011;46977;50.936;6.908;2023-06-22T00:41:02;2.80;;;2.60;;
61096;SDS011;46977;50.936;6.908;2023-06-22T00:44:04;2.63;;;2.35;;
61096;SDS011;46977;50.936;6.908;2023-06-22T00:47:07;3.47;;;2.45;;
61096;SDS011;46977;50.936;6.908;2023-06-22T00:50:11;2.33;;;2.13;;
61096;SDS011;46977;50.936;6.908;2023-06-22T00:53:21;2.65;;;2.20;;
61096;SDS011;46977;50.936;6.908;2023-06-22T00:56:24;2.40;;;2.28;;
61096;SDS011;46977;50.936;6.908;2023-06-22T00:59:26;2.55;;;2.30;;
61096;SDS011;46977;50.936;6.908;2023-06-22T01:02:29;2.55;;;2.35;;
61096;SDS011;46977;50.936;6.908;2023-06-22T01:05:34;2.85;;;2.33;;
61096;SDS011;46977;50.936;6.908;2023-06-22T01:08:38;2.83;;;2.60;;
61096;SDS011;46977;50.936;6.908;2023-06-22T01:11:47;2.78;;;2.53;;
61096;SDS011;46977;50.936;6.908;2023-06-22T01:14:57;2.97;;;2.65;;
61096;SDS011;46977;50.936;6.908;2023-06-22T01:18:11;2.15;;;2.03;;
61096;SDS011;46977;50.936;6.908;2023-06-22T01:21:17;2.50;;;2.05;;
61096;SDS011;46977;50.936;6.908;2023-06-22T01:24:22;4.22;;;2.67;;
61096;SDS011;46977;50.936;6.908;2023-06-22T01:27:28;2.70;;;2.13;;
61096;SDS011;46977;50.936;6.908;2023-06-22T01:30:37;4.25;;;2.38;;
61096;SDS011;46977;50.936;6.908;2023-06-22T01:33:42;4.03;;;2.55;;
61096;SDS011;46977;50.936;6.908;2023-06-22T01:36:45;2.55;;;2.38;;
61096;SDS011;46977;50.936;6.908;2023-06-22T01:39:48;2.60;;;2.40;;
61096;SDS011;46977;50.936;6.908;2023-06-22T01:42:50;3.10;;;2.40;;
61096;SDS011;46977;50.936;6.908;2023-06-22T01:45:54;2.95;;;2.75;;
61096;SDS011;46977;50.936;6.908;2023-06-22T01:48:58;2.30;;;2.10;;
61096;SDS011;46977;50.936;6.908;2023-06-22T01:52:00;2.72;;;2.17;;
61096;SDS011;46977;50.936;6.908;2023-06-22T01:55:03;2.50;;;2.30;;
61096;SDS011;46977;50.936;6.908;2023-06-22T01:58:07;2.30;;;2.10;;
61096;SDS011;46977;50.936;6.908;2023-06-22T02:01:11;2.58;;;2.40;;
61096;SDS011;46977;50.936;6.908;2023-06-22T02:04:18;2.60;;;2.03;;
61096;SDS011;46977;50.936;6.908;2023-06-22T02:07:23;2.00;;;1.90;;
61096;SDS011;46977;50.936;6.908;2023-06-22T02:10:25;2.72;;;2.22;;
61096;SDS011;46977;50.936;6.908;2023-06-22T02:13:32;1.85;;;1.75;;
61096;SDS011;46977;50.936;6.908;2023-06-22T02:16:36;3.03;;;2.05;;
61096;SDS011;46977;50.936;6.908;2023-06-22T02:19:40;3.38;;;2.30;;
61096;SDS011;46977;50.936;6.908;2023-06-22T02:22:43;2.08;;;1.98;;
61096;SDS011;46977;50.936;6.908;2023-06-22T02:25:46;3.00;;;2.72;;
61096;SDS011;46977;50.936;6.908;2023-06-22T02:28:48;2.03;;;1.90;;
61096;SDS011;46977;50.936;6.908;2023-06-22T02:31:53;2.33;;;2.10;;
61096;SDS011;46977;50.936;6.908;2023-06-22T02:34:55;2.80;;;1.77;;
61096;SDS011;46977;50.936;6.908;2023-06-22T02:37:59;2.67;;;2.35;;
61096;SDS011;46977;50.936;6.908;2023-06-22T02:41:02;3.80;;;2.38;;
61096;SDS011;46977;50.936;6.908;2023-06-22T02:44:04;2.20;;;2.00;;
61096;SDS011;46977;50.936;6.908;2023-06-22T02:47:08;1.90;;;1.80;;
61096;SDS011;46977;50.936;6.908;2023-06-22T02:50:12;3.20;;;2.42;;
61096;SDS011;46977;50.936;6.908;2023-06-22T02:53:14;2.40;;;2.20;;
61096;SDS011;46977;50.936;6.908;2023-06-22T02:56:20;4.35;;;2.65;;
61096;SDS011;46977;50.936;6.908;2023-06-22T02:59:31;2.03;;;1.92;;
61096;SDS011;46977;50.936;6.908;2023-06-22T03:02:43;2.03;;;1.88;;
61096;SDS011;46977;50.936;6.908;2023-06-22T03:05:46;2.13;;;1.80;;
61096;SDS011;46977;50.936;6.908;2023-06-22T03:08:49;6.25;;;2.35;;
61096;SDS011;46977;50.936;6.908;2023-06-22T03:11:51;2.35;;;1.90;;
61096;SDS011;46977;50.936;6.908;2023-06-22T03:14:55;2.85;;;2.22;;
61096;SDS011;46977;50.936;6.908;2023-06-22T03:17:58;2.40;;;1.98;;
61096;SDS011;46977;50.936;6.908;2023-06-22T03:21:03;1.88;;;1.75;;
61096;SDS011;46977;50.936;6.908;2023-06-22T03:24:06;2.28;;;2.05;;
61096;SDS011;46977;50.936;6.908;2023-06-22T03:27:08;2.15;;;2.03;;
61096;SDS011;46977;50.936;6.908;2023-06-22T03:30:11;2.13;;;1.95;;
61096;SDS011;46977;50.936;6.908;2023-06-22T03:33:15;2.25;;;1.55;;
61096;SDS011;46977;50.936;6.908;2023-06-22T03:36:17;1.92;;;1.83;;
61096;SDS011;46977;50.936;6.908;2023-06-22T03:39:24;2.05;;;1.95;;
61096;SDS011;46977;50.936;6.908;2023-06-22T03:42:27;2.75;;;1.80;;
61096;SDS011;46977;50.936;6.908;2023-06-22T03:45:30;3.58;;;2.40;;
61096;SDS011;46977;50.936;6.908;2023-06-22T03:48:33;2.00;;;1.80;;
61096;SDS011;46977;50.936;6.908;2023-06-22T03:51:36;3.17;;;2.22;;
61096;SDS011;46977;50.936;6.908;2023-06-22T03:54:38;2.88;;;2.10;;
61096;SDS011;46977;50.936;6.908;2023-06-22T03:57:40;4.18;;;2.38;;
61096;SDS011;46977;50.936;6.908;2023-06-22T04:00:43;2.25;;;2.08;;
61096;SDS011;46977;50.936;6.908;2023-06-22T04:03:46;2.75;;;2.40;;
61096;SDS011;46977;50.936;6.908;2023-06-22T04:06:51;2.25;;;2.03;;
61096;SDS011;46977;50.936;6.908;2023-06-22T04:09:53;2.72;;;2.33;;
61096;SDS011;46977;50.936;6.908;2023-06-22T04:12:56;2.67;;;2.47;;
61096;SDS011;46977;50.936;6.908;2023-06-22T04:15:58;2.30;;;2.10;;
61096;SDS011;46977;50.936;6.908;2023-06-22T04:19:04;2.72;;;2.50;;
61096;SDS011;46977;50.936;6.908;2023-06-22T04:22:06;3.10;;;2.90;;
61096;SDS011;46977;50.936;6.908;2023-06-22T04:25:09;6.25;;;3.33;;
61096;SDS011;46977;50.936;6.908;2023-06-22T04:28:11;3.60;;;3.30;;
61096;SDS011;46977;50.936;6.908;2023-06-22T04:31:16;4.72;;;3.90;;
61096;SDS011;46977;50.936;6.908;2023-06-22T04:34:20;3.60;;;3.38;;
61096;SDS011;46977;50.936;6.908;2023-06-22T04:37:23;4.32;;;3.92;;
61096;SDS011;46977;50.936;6.908;2023-06-22T04:40:26;3.92;;;3.67;;
61096;SDS011;46977;50.936;6.908;2023-06-22T04:43:29;4.75;;;4.28;;
61096;SDS011;46977;50.936;6.908;2023-06-22T04:46:34;5.00;;;4.47;;
61096;SDS011;46977;50.936;6.908;2023-06-22T04:49:44;4.68;;;4.28;;
61096;SDS011;46977;50.936;6.908;2023-06-22T04:52:46;5.60;;;5.20;;
61096;SDS011;46977;50.936;6.908;2023-06-22T04:55:48;6.20;;;4.70;;
61096;SDS011;46977;50.936;6.908;2023-06-22T04:58:51;6.13;;;5.57;;
61096;SDS011;46977;50.936;6.908;2023-06-22T05:01:53;4.82;;;4.43;;
61096;SDS011;46977;50.936;6.908;2023-06-22T05:04:57;4.47;;;3.90;;
61096;SDS011;46977;50.936;6.908;2023-06-22T05:08:01;3.63;;;3.33;;
61096;SDS011;46977;50.936;6.908;2023-06-22T05:11:04;8.00;;;7.15;;
61096;SDS011;46977;50.936;6.908;2023-06-22T05:14:07;3.78;;;3.38;;
61096;SDS011;46977;50.936;6.908;2023-06-22T05:17:09;2.90;;;2.70;;
61096;SDS011;46977;50.936;6.908;2023-06-22T05:20:20;3.95;;;2.53;;
61096;SDS011;46977;50.936;6.908;2023-06-22T05:23:23;3.00;;;2.80;;
61096;SDS011;46977;50.936;6.908;2023-06-22T05:26:26;4.65;;;3.42;;
61096;SDS011;46977;50.936;6.908;2023-06-22T05:29:28;3.45;;;2.70;;
61096;SDS011;46977;50.936;6.908;2023-06-22T05:32:31;5.38;;;3.20;;
61096;SDS011;46977;50.936;6.908;2023-06-22T05:35:34;7.93;;;3.78;;
61096;SDS011;46977;50.936;6.908;2023-06-22T05:38:37;5.57;;;4.60;;
61096;SDS011;46977;50.936;6.908;2023-06-22T05:41:41;5.05;;;4.60;;
61096;SDS011;46977;50.936;6.908;2023-06-22T05:44:45;5.47;;;4.97;;
61096;SDS011;46977;50.936;6.908;2023-06-22T05:47:48;6.50;;;5.80;;
61096;SDS011;46977;50.936;6.908;2023-06-22T05:50:52;6.05;;;5.55;;
61096;SDS011;46977;50.936;6.908;2023-06-22T05:53:55;6.13;;;5.53;;
61096;SDS011;46977;50.936;6.908;2023-06-22T05:56:58;6.13;;;5.55;;
61096;SDS011;46977;50.936;6.908;2023-06-22T06:00:00;6.15;;;5.55;;
61096;SDS011;46977;50.936;6.908;2023-06-22T06:03:06;6.07;;;5.20;;
61096;SDS011;46977;50.936;6.908;2023-06-22T06:06:10;5.72;;;5.32;;
61096;SDS011;46977;50.936;6.908;2023-06-22T06:09:15;6.10;;;5.60;;
61096;SDS011;46977;50.936;6.908;2023-06-22T06:12:17;5.95;;;5.43;;
61096;SDS011;46977;50.936;6.908;2023-06-22T06:15:20;6.65;;;6.05;;
61096;SDS011;46977;50.936;6.908;2023-06-22T06:18:22;5.75;;;5.30;;
61096;SDS011;46977;50.936;6.908;2023-06-22T06:21:26;6.13;;;5.72;;
61096;SDS011;46977;50.936;6.908;2023-06-22T06:24:32;6.20;;;5.70;;
61096;SDS011;46977;50.936;6.908;2023-06-22T06:27:34;6.88;;;6.07;;
61096;SDS011;46977;50.936;6.908;2023-06-22T06:30:36;6.07;;;5.50;;
61096;SDS011;46977;50.936;6.908;2023-06-22T06:33:39;5.78;;;5.47;;
61096;SDS011;46977;50.936;6.908;2023-06-22T06:36:42;6.03;;;5.63;;
61096;SDS011;46977;50.936;6.908;2023-06-22T06:39:46;5.18;;;4.78;;
61096;SDS011;46977;50.936;6.908;2023-06-22T06:42:48;5.68;;;5.05;;
61096;SDS011;46977;50.936;6.908;2023-06-22T06:45:51;5.88;;;5.38;;
61096;SDS011;46977;50.936;6.908;2023-06-22T06:48:54;5.05;;;4.75;;
61096;SDS011;46977;50.936;6.908;2023-06-22T06:51:57;4.95;;;4.65;;
61096;SDS011;46977;50.936;6.908;2023-06-22T06:55:00;6.30;;;4.72;;
61096;SDS011;46977;50.936;6.908;2023-06-22T06:58:03;4.78;;;4.47;;
61096;SDS011;46977;50.936;6.908;2023-06-22T07:01:10;5.45;;;4.95;;
61096;SDS011;46977;50.936;6.908;2023-06-22T07:04:12;5.45;;;5.10;;
61096;SDS011;46977;50.936;6.908;2023-06-22T07:07:16;5.28;;;4.78;;
61096;SDS011;46977;50.936;6.908;2023-06-22T07:10:18;5.22;;;4.93;;
61096;SDS011;46977;50.936;6.908;2023-06-22T07:13:20;6.07;;;4.97;;
61096;SDS011;46977;50.936;6.908;2023-06-22T07:16:23;5.63;;;4.95;;
61096;SDS011;46977;50.936;6.908;2023-06-22T07:19:27;5.78;;;5.13;;
61096;SDS011;46977;50.936;6.908;2023-06-22T07:22:34;5.38;;;4.97;;
61096;SDS011;46977;50.936;6.908;2023-06-22T07:25:37;4.70;;;4.30;;
61096;SDS011;46977;50.936;6.908;2023-06-22T07:28:40;4.43;;;4.20;;
61096;SDS011;46977;50.936;6.908;2023-06-22T07:31:43;4.40;;;4.10;;
61096;SDS011;46977;50.936;6.908;2023-06-22T07:34:46;4.65;;;4.30;;
61096;SDS011;46977;50.936;6.908;2023-06-22T07:37:50;4.75;;;4.35;;
61096;SDS011;46977;50.936;6.908;2023-06-22T07:40:52;5.20;;;4.80;;
61096;SDS011;46977;50.936;6.908;2023-06-22T07:43:55;4.80;;;4.50;;
61096;SDS011;46977;50.936;6.908;2023-06-22T07:46:57;4.47;;;4.18;;
61096;SDS011;46977;50.936;6.908;2023-06-22T07:49:59;5.47;;;4.95;;
61096;SDS011;46977;50.936;6.908;2023-06-22T07:53:04;5.25;;;4.75;;
61096;SDS011;46977;50.936;6.908;2023-06-22T07:56:07;5.10;;;4.70;;
61096;SDS011;46977;50.936;6.908;2023-06-22T07:59:12;5.25;;;4.85;;
61096;SDS011;46977;50.936;6.908;2023-06-22T08:02:14;5.30;;;4.90;;
61096;SDS011;46977;50.936;6.908;2023-06-22T08:05:19;5.55;;;5.07;;
61096;SDS011;46977;50.936;6.908;2023-06-22T08:08:25;4.90;;;4.40;;
61096;SDS011;46977;50.936;6.908;2023-06-22T08:11:27;4.80;;;4.40;;
61096;SDS011;46977;50.936;6.908;2023-06-22T08:14:30;3.92;;;3.72;;
61096;SDS011;46977;50.936;6.908;2023-06-22T08:17:32;4.80;;;4.50;;
61096;SDS011;46977;50.936;6.908;2023-06-22T08:20:35;4.72;;;4.32;;
61096;SDS011;46977;50.936;6.908;2023-06-22T08:23:39;5.20;;;4.90;;
61096;SDS011;46977;50.936;6.908;2023-06-22T08:26:41;5.20;;;4.90;;
61096;SDS011;46977;50.936;6.908;2023-06-22T08:29:44;5.10;;;4.80;;
61096;SDS011;46977;50.936;6.908;2023-06-22T08:32:49;5.03;;;4.72;;
61096;SDS011;46977;50.936;6.908;2023-06-22T08:35:51;4.70;;;4.40;;
61096;SDS011;46977;50.936;6.908;2023-06-22T08:38:55;4.28;;;4.00;;
61096;SDS011;46977;50.936;6.908;2023-06-22T08:42:03;5.38;;;4.88;;
61096;SDS011;46977;50.936;6.908;2023-06-22T08:45:06;5.05;;;4.55;;
61096;SDS011;46977;50.936;6.908;2023-06-22T08:48:09;4.07;;;3.72;;
61096;SDS011;46977;50.936;6.908;2023-06-22T08:51:12;4.93;;;4.55;;
61096;SDS011;46977;50.936;6.908;2023-06-22T08:54:17;4.45;;;4.15;;
61096;SDS011;46977;50.936;6.908;2023-06-22T08:57:20;5.20;;;4.05;;
61096;SDS011;46977;50.936;6.908;2023-06-22T09:00:23;4.82;;;4.43;;
61096;SDS011;46977;50.936;6.908;2023-06-22T09:03:25;4.80;;;4.53;;
61096;SDS011;46977;50.936;6.908;2023-06-22T09:06:28;5.00;;;4.60;;
61096;SDS011;46977;50.936;6.908;2023-06-22T09:09:34;5.07;;;4.68;;
61096;SDS011;46977;50.936;6.908;2023-06-22T09:12:36;4.40;;;4.20;;
61096;SDS011;46977;50.936;6.908;2023-06-22T09:15:39;4.60;;;4.25;;
61096;SDS011;46977;50.936;6.908;2023-06-22T09:18:42;4.88;;;4.53;;
61096;SDS011;46977;50.936;6.908;2023-06-22T09:21:45;5.05;;;4.55;;
61096;SDS011;46977;50.936;6.908;2023-06-22T09:24:49;4.28;;;3.97;;
61096;SDS011;46977;50.936;6.908;2023-06-22T09:27:51;4.70;;;4.32;;
61096;SDS011;46977;50.936;6.908;2023-06-22T09:30:53;4.60;;;4.30;;
61096;SDS011;46977;50.936;6.908;2023-06-22T09:34:01;4.22;;;3.92;;
61096;SDS011;46977;50.936;6.908;2023-06-22T09:37:03;4.88;;;4.50;;
61096;SDS011;46977;50.936;6.908;2023-06-22T09:40:08;4.45;;;4.15;;
61096;SDS011;46977;50.936;6.908;2023-06-22T09:43:13;4.57;;;4.18;;
61096;SDS011;46977;50.936;6.908;2023-06-22T09:46:15;5.15;;;4.70;;
61096;SDS011;46977;50.936;6.908;2023-06-22T09:49:17;4.90;;;4.50;;
61096;SDS011;46977;50.936;6.908;2023-06-22T09:52:28;4.53;;;4.13;;
61096;SDS011;46977;50.936;6.908;2023-06-22T09:55:49;4.65;;;4.35;;
61096;SDS011;46977;50.936;6.908;2023-06-22T09:58:51;4.40;;;4.10;;
61096;SDS011;46977;50.936;6.908;2023-06-22T10:01:55;4.38;;;4.07;;
61096;SDS011;46977;50.936;6.908;2023-06-22T10:04:58;4.60;;;4.18;;
61096;SDS011;46977;50.936;6.908;2023-06-22T10:08:01;4.50;;;4.05;;
61096;SDS011;46977;50.936;6.908;2023-06-22T10:11:04;5.25;;;4.75;;
61096;SDS011;46977;50.936;6.908;2023-06-22T10:14:10;6.05;;;5.53;;
61096;SDS011;46977;50.936;6.908;2023-06-22T10:17:12;4.65;;;4.35;;
61096;SDS011;46977;50.936;6.908;2023-06-22T10:20:14;4.75;;;4.40;;
61096;SDS011;46977;50.936;6.908;2023-06-22T10:23:17;5.20;;;4.85;;
61096;SDS011;46977;50.936;6.908;2023-06-22T10:26:20;4.40;;;4.10;;
61096;SDS011;46977;50.936;6.908;2023-06-22T10:29:23;4.85;;;4.45;;
61096;SDS011;46977;50.936;6.908;2023-06-22T10:32:25;5.65;;;5.25;;
61096;SDS011;46977;50.936;6.908;2023-06-22T10:35:28;7.78;;;6.97;;
61096;SDS011;46977;50.936;6.908;2023-06-22T10:38:31;6.38;;;5.93;;
61096;SDS011;46977;50.936;6.908;2023-06-22T10:41:35;7.03;;;5.80;;
61096;SDS011;46977;50.936;6.908;2023-06-22T10:44:37;7.00;;;6.40;;
61096;SDS011;46977;50.936;6.908;2023-06-22T10:47:40;6.65;;;6.05;;
61096;SDS011;46977;50.936;6.908;2023-06-22T10:50:44;7.50;;;6.80;;
61096;SDS011;46977;50.936;6.908;2023-06-22T10:53:46;6.82;;;6.28;;
61096;SDS011;46977;50.936;6.908;2023-06-22T10:56:50;8.43;;;6.90;;
61096;SDS011;46977;50.936;6.908;2023-06-22T10:59:54;9.77;;;8.18;;
61096;SDS011;46977;50.936;6.908;2023-06-22T11:02:56;8.30;;;7.53;;
61096;SDS011;46977;50.936;6.908;2023-06-22T11:06:00;8.10;;;7.35;;
61096;SDS011;46977;50.936;6.908;2023-06-22T11:09:03;8.18;;;7.45;;
61096;SDS011;46977;50.936;6.908;2023-06-22T11:12:26;9.50;;;8.43;;
61096;SDS011;46977;50.936;6.908;2023-06-22T11:15:29;8.88;;;8.02;;
61096;SDS011;46977;50.936;6.908;2023-06-22T11:18:31;10.85;;;8.27;;
61096;SDS011;46977;50.936;6.908;2023-06-22T11:21:35;9.50;;;8.57;;
61096;SDS011;46977;50.936;6.908;2023-06-22T11:24:38;9.40;;;8.45;;
61096;SDS011;46977;50.936;6.908;2023-06-22T11:27:42;9.32;;;8.32;;
61096;SDS011;46977;50.936;6.908;2023-06-22T11:30:48;9.88;;;8.90;;
61096;SDS011;46977;50.936;6.908;2023-06-22T11:33:52;9.93;;;8.93;;
61096;SDS011;46977;50.936;6.908;2023-06-22T11:36:54;11.35;;;10.30;;
61096;SDS011;46977;50.936;6.908;2023-06-22T11:39:57;9.80;;;8.90;;
61096;SDS011;46977;50.936;6.908;2023-06-22T11:43:10;10.30;;;9.40;;
61096;SDS011;46977;50.936;6.908;2023-06-22T11:46:12;10.20;;;9.30;;
61096;SDS011;46977;50.936;6.908;2023-06-22T11:49:14;9.25;;;8.35;;
61096;SDS011;46977;50.936;6.908;2023-06-22T11:52:17;10.82;;;9.80;;
61096;SDS011;46977;50.936;6.908;2023-06-22T11:55:22;10.35;;;9.32;;
61096;SDS011;46977;50.936;6.908;2023-06-22T11:58:25;9.90;;;8.88;;
61096;SDS011;46977;50.936;6.908;2023-06-22T12:01:28;10.30;;;8.85;;
61096;SDS011;46977;50.936;6.908;2023-06-22T12:04:30;8.75;;;8.05;;
61096;SDS011;46977;50.936;6.908;2023-06-22T12:07:33;9.93;;;9.02;;
61096;SDS011;46977;50.936;6.908;2023-06-22T12:10:35;10.77;;;9.77;;
61096;SDS011;46977;50.936;6.908;2023-06-22T12:13:39;10.77;;;9.77;;
61096;SDS011;46977;50.936;6.908;2023-06-22T12:16:41;12.18;;;10.95;;
61096;SDS011;46977;50.936;6.908;2023-06-22T12:19:45;13.70;;;12.35;;
61096;SDS011;46977;50.936;6.908;2023-06-22T12:22:48;13.63;;;12.32;;
61096;SDS011;46977;50.936;6.908;2023-06-22T12:25:53;13.60;;;12.27;;
61096;SDS011;46977;50.936;6.908;2023-06-22T12:28:56;12.93;;;11.82;;
61096;SDS011;46977;50.936;6.908;2023-06-22T12:31:59;10.38;;;9.48;;
61096;SDS011;46977;50.936;6.908;2023-06-22T12:35:01;12.02;;;11.02;;
61096;SDS011;46977;50.936;6.908;2023-06-22T12:38:04;12.68;;;11.55;;
61096;SDS011;46977;50.936;6.908;2023-06-22T12:41:08;11.75;;;10.57;;
61096;SDS011;46977;50.936;6.908;2023-06-22T12:44:12;11.35;;;10.40;;
61096;SDS011;46977;50.936;6.908;2023-06-22T12:47:14;9.60;;;8.57;;
61096;SDS011;46977;50.936;6.908;2023-06-22T12:50:16;9.75;;;8.85;;
61096;SDS011;46977;50.936;6.908;2023-06-22T12:53:19;8.38;;;7.68;;
61096;SDS011;46977;50.936;6.908;2023-06-22T12:56:21;8.13;;;7.45;;
61096;SDS011;46977;50.936;6.908;2023-06-22T12:59:25;8.02;;;7.22;;
61096;SDS011;46977;50.936;6.908;2023-06-22T13:02:28;8.20;;;7.50;;
61096;SDS011;46977;50.936;6.908;2023-06-22T13:05:30;7.22;;;6.63;;
61096;SDS011;46977;50.936;6.908;2023-06-22T13:08:33;7.53;;;6.82;;
61096;SDS011;46977;50.936;6.908;2023-06-22T13:11:55;7.93;;;7.30;;
61096;SDS011;46977;50.936;6.908;2023-06-22T13:14:59;8.32;;;7.60;;
61096;SDS011;46977;50.936;6.908;2023-06-22T13:18:01;8.20;;;7.57;;
61096;SDS011;46977;50.936;6.908;2023-06-22T13:21:04;8.20;;;7.45;;
61096;SDS011;46977;50.936;6.908;2023-06-22T13:24:07;8.25;;;7.55;;
61096;SDS011;46977;50.936;6.908;2023-06-22T13:27:09;7.97;;;7.28;;
61096;SDS011;46977;50.936;6.908;2023-06-22T13:30:13;8.38;;;7.72;;
61096;SDS011;46977;50.936;6.908;2023-06-22T13:33:16;6.60;;;6.03;;
61096;SDS011;46977;50.936;6.908;2023-06-22T13:36:18;6.70;;;6.20;;
61096;SDS011;46977;50.936;6.908;2023-06-22T13:39:21;6.43;;;5.85;;
61096;SDS011;46977;50.936;6.908;2023-06-22T13:42:23;6.47;;;5.97;;
61096;SDS011;46977;50.936;6.908;2023-06-22T13:45:27;5.93;;;5.53;;
61096;SDS011;46977;50.936;6.908;2023-06-22T13:48:30;5.93;;;5.43;;
61096;SDS011;46977;50.936;6.908;2023-06-22T13:51:32;5.50;;;5.10;;
61096;SDS011;46977;50.936;6.908;2023-06-22T13:54:34;5.38;;;4.90;;
61096;SDS011;46977;50.936;6.908;2023-06-22T13:57:37;5.00;;;4.60;;
61096;SDS011;46977;50.936;6.908;2023-06-22T14:00:41;5.07;;;4.70;;
61096;SDS011;46977;50.936;6.908;2023-06-22T14:03:43;4.15;;;3.90;;
61096;SDS011;46977;50.936;6.908;2023-06-22T14:06:48;4.53;;;4.22;;
61096;SDS011;46977;50.936;6.908;2023-06-22T14:09:50;3.92;;;3.63;;
61096;SDS011;46977;50.936;6.908;2023-06-22T14:12:53;4.07;;;3.80;;
61096;SDS011;46977;50.936;6.908;2023-06-22T14:15:58;3.50;;;3.20;;
61096;SDS011;46977;50.936;6.908;2023-06-22T14:19:01;3.13;;;2.80;;
61096;SDS011;46977;50.936;6.908;2023-06-22T14:22:03;2.65;;;2.47;;
61096;SDS011;46977;50.936;6.908;2023-06-22T14:25:06;3.35;;;3.10;;
61096;SDS011;46977;50.936;6.908;2023-06-22T14:28:09;2.80;;;2.60;;
61096;SDS011;46977;50.936;6.908;2023-06-22T14:31:12;3.05;;;2.85;;
61096;SDS011;46977;50.936;6.908;2023-06-22T14:34:15;3.97;;;3.30;;
61096;SDS011;46977;50.936;6.908;2023-06-22T14:37:18;3.47;;;3.28;;
61096;SDS011;46977;50.936;6.908;2023-06-22T14:40:20;3.58;;;3.33;;
61096;SDS011;46977;50.936;6.908;2023-06-22T14:43:26;4.05;;;3.75;;
61096;SDS011;46977;50.936;6.908;2023-06-22T14:46:30;5.10;;;3.80;;
61096;SDS011;46977;50.936;6.908;2023-06-22T14:49:32;4.38;;;4.05;;
61096;SDS011;46977;50.936;6.908;2023-06-22T14:52:35;4.43;;;3.90;;
61096;SDS011;46977;50.936;6.908;2023-06-22T14:55:37;4.03;;;3.70;;
61096;SDS011;46977;50.936;6.908;2023-06-22T14:58:40;4.50;;;4.10;;
61096;SDS011;46977;50.936;6.908;2023-06-22T15:01:44;3.50;;;3.30;;
61096;SDS011;46977;50.936;6.908;2023-06-22T15:04:49;4.30;;;3.90;;
61096;SDS011;46977;50.936;6.908;2023-06-22T15:07:51;3.78;;;3.47;;
61096;SDS011;46977;50.936;6.908;2023-06-22T15:10:54;3.90;;;3.60;;
61096;SDS011;46977;50.936;6.908;2023-06-22T15:13:57;3.95;;;3.65;;
61096;SDS011;46977;50.936;6.908;2023-06-22T15:17:01;3.97;;;3.63;;
61096;SDS011;46977;50.936;6.908;2023-06-22T15:20:04;5.10;;;4.70;;
61096;SDS011;46977;50.936;6.908;2023-06-22T15:23:07;5.18;;;4.78;;
61096;SDS011;46977;50.936;6.908;2023-06-22T15:26:10;7.85;;;5.10;;
61096;SDS011;46977;50.936;6.908;2023-06-22T15:29:13;6.35;;;5.13;;
61096;SDS011;46977;50.936;6.908;2023-06-22T15:32:16;5.35;;;4.82;;
61096;SDS011;46977;50.936;6.908;2023-06-22T15:35:19;6.35;;;5.25;;
61096;SDS011;46977;50.936;6.908;2023-06-22T15:38:21;6.15;;;5.07;;
61096;SDS011;46977;50.936;6.908;2023-06-22T15:41:24;5.80;;;5.22;;
61096;SDS011;46977;50.936;6.908;2023-06-22T15:44:26;5.45;;;4.95;;
61096;SDS011;46977;50.936;6.908;2023-06-22T15:47:30;6.45;;;5.53;;
61096;SDS011;46977;50.936;6.908;2023-06-22T15:50:32;8.10;;;6.28;;
61096;SDS011;46977;50.936;6.908;2023-06-22T15:53:35;6.63;;;5.93;;
61096;SDS011;46977;50.936;6.908;2023-06-22T15:56:37;7.60;;;6.90;;
61096;SDS011;46977;50.936;6.908;2023-06-22T15:59:40;6.38;;;5.60;;
61096;SDS011;46977;50.936;6.908;2023-06-22T16:02:44;7.65;;;6.63;;
61096;SDS011;46977;50.936;6.908;2023-06-22T16:05:48;8.45;;;7.60;;
61096;SDS011;46977;50.936;6.908;2023-06-22T16:08:50;7.90;;;7.03;;
61096;SDS011;46977;50.936;6.908;2023-06-22T16:11:53;9.75;;;7.75;;
61096;SDS011;46977;50.936;6.908;2023-06-22T16:14:56;10.27;;;7.40;;
61096;SDS011;46977;50.936;6.908;2023-06-22T16:17:59;8.55;;;7.85;;
61096;SDS011;46977;50.936;6.908;2023-06-22T16:21:02;7.60;;;6.88;;
61096;SDS011;46977;50.936;6.908;2023-06-22T16:24:06;8.48;;;7.75;;
61096;SDS011;46977;50.936;6.908;2023-06-22T16:27:08;7.85;;;6.82;;
61096;SDS011;46977;50.936;6.908;2023-06-22T16:30:10;9.43;;;7.63;;
61096;SDS011;46977;50.936;6.908;2023-06-22T16:33:14;9.80;;;8.45;;
61096;SDS011;46977;50.936;6.908;2023-06-22T16:36:17;10.07;;;7.93;;
61096;SDS011;46977;50.936;6.908;2023-06-22T16:39:19;8.98;;;6.90;;
61096;SDS011;46977;50.936;6.908;2023-06-22T16:42:22;6.68;;;5.97;;
61096;SDS011;46977;50.936;6.908;2023-06-22T16:45:24;6.00;;;5.50;;
61096;SDS011;46977;50.936;6.908;2023-06-22T16:48:28;6.35;;;5.78;;
61096;SDS011;46977;50.936;6.908;2023-06-22T16:51:30;6.00;;;4.85;;
61096;SDS011;46977;50.936;6.908;2023-06-22T16:54:33;5.72;;;5.22;;
61096;SDS011;46977;50.936;6.908;2023-06-22T16:57:38;6.03;;;5.40;;
61096;SDS011;46977;50.936;6.908;2023-06-22T17:00:40;5.15;;;4.57;;
61096;SDS011;46977;50.936;6.908;2023-06-22T17:03:47;4.43;;;3.40;;
61096;SDS011;46977;50.936;6.908;2023-06-22T17:06:54;2.50;;;2.30;;
61096;SDS011;46977;50.936;6.908;2023-06-22T17:09:59;2.00;;;1.70;;
61096;SDS011;46977;50.936;6.908;2023-06-22T17:13:02;3.15;;;1.77;;
61096;SDS011;46977;50.936;6.908;2023-06-22T17:16:06;1.92;;;1.17;;
61096;SDS011;46977;50.936;6.908;2023-06-22T17:19:12;1.70;;;1.10;;
61096;SDS011;46977;50.936;6.908;2023-06-22T17:22:15;2.05;;;1.38;;
61096;SDS011;46977;50.936;6.908;2023-06-22T17:25:18;4.78;;;1.20;;
61096;SDS011;46977;50.936;6.908;2023-06-22T17:28:21;1.85;;;1.10;;
61096;SDS011;46977;50.936;6.908;2023-06-22T17:31:25;1.23;;;1.13;;
61096;SDS011;46977;50.936;6.908;2023-06-22T17:34:29;2.25;;;1.38;;
61096;SDS011;46977;50.936;6.908;2023-06-22T17:37:33;2.00;;;1.40;;
61096;SDS011;46977;50.936;6.908;2023-06-22T17:40:36;1.15;;;1.05;;
61096;SDS011;46977;50.936;6.908;2023-06-22T17:43:45;2.13;;;1.75;;
61096;SDS011;46977;50.936;6.908;2023-06-22T17:46:50;2.70;;;1.67;;
61096;SDS011;46977;50.936;6.908;2023-06-22T17:50:04;2.78;;;1.88;;
61096;SDS011;46977;50.936;6.908;2023-06-22T17:53:08;3.20;;;3.00;;
61096;SDS011;46977;50.936;6.908;2023-06-22T17:56:12;2.45;;;2.25;;
61096;SDS011;46977;50.936;6.908;2023-06-22T17:59:15;3.47;;;3.20;;
61096;SDS011;46977;50.936;6.908;2023-06-22T18:02:18;4.22;;;3.92;;
61096;SDS011;46977;50.936;6.908;2023-06-22T18:05:32;4.38;;;3.97;;
61096;SDS011;46977;50.936;6.908;2023-06-22T18:08:36;5.93;;;5.40;;
61096;SDS011;46977;50.936;6.908;2023-06-22T18:11:41;6.35;;;5.95;;
61096;SDS011;46977;50.936;6.908;2023-06-22T18:14:45;7.05;;;6.55;;
61096;SDS011;46977;50.936;6.908;2023-06-22T18:17:47;9.40;;;8.60;;
61096;SDS011;46977;50.936;6.908;2023-06-22T18:20:52;12.25;;;11.35;;
61096;SDS011;46977;50.936;6.908;2023-06-22T18:23:56;11.32;;;10.52;;